createdAt,value
2018-07-16T00:00:12.295Z,5.92
2018-07-16T00:00:50.859Z,6.00
2018-07-16T00:01:24.096Z,5.78
2018-07-16T00:01:57.360Z,5.80
2018-07-16T00:02:30.653Z,5.30
2018-07-16T00:03:03.734Z,5.65
2018-07-16T00:03:37.079Z,5.33
2018-07-16T00:04:10.269Z,5.03
2018-07-16T00:04:43.350Z,5.50
2018-07-16T00:05:16.444Z,5.15
2018-07-16T00:05:49.496Z,4.87
2018-07-16T00:06:22.813Z,4.92
2018-07-16T00:06:56.287Z,5.40
2018-07-16T00:07:29.729Z,6.28
2018-07-16T00:08:03.476Z,5.72
2018-07-16T00:08:36.717Z,5.95
2018-07-16T00:09:09.886Z,5.30
2018-07-16T00:09:44.591Z,5.67
2018-07-16T00:10:18.029Z,5.20
2018-07-16T00:10:51.526Z,5.20
2018-07-16T00:11:24.778Z,5.35
2018-07-16T00:11:58.833Z,6.22
2018-07-16T00:12:33.115Z,5.28
2018-07-16T00:13:06.324Z,5.30
2018-07-16T00:13:39.791Z,5.87
2018-07-16T00:14:13.224Z,5.33
2018-07-16T00:14:46.855Z,5.03
2018-07-16T00:15:19.998Z,5.53
2018-07-16T00:15:53.043Z,6.00
2018-07-16T00:16:26.123Z,5.75
2018-07-16T00:16:59.641Z,4.75
2018-07-16T00:17:32.951Z,5.87
2018-07-16T00:18:06.035Z,5.85
2018-07-16T00:18:39.458Z,5.92
2018-07-16T00:19:12.528Z,5.90
2018-07-16T00:19:45.802Z,6.28
2018-07-16T00:20:19.109Z,5.72
2018-07-16T00:20:52.203Z,6.28
2018-07-16T00:21:25.317Z,5.20
2018-07-16T00:21:58.438Z,5.42
2018-07-16T00:22:32.107Z,5.50
2018-07-16T00:23:05.279Z,5.90
2018-07-16T00:23:38.351Z,5.62
2018-07-16T00:24:11.456Z,5.45
2018-07-16T00:24:44.845Z,5.37
2018-07-16T00:25:18.026Z,6.25
2018-07-16T00:25:51.116Z,5.67
2018-07-16T00:26:24.171Z,5.92
2018-07-16T00:26:57.532Z,5.60
2018-07-16T00:27:30.723Z,5.50
2018-07-16T00:28:03.806Z,6.12
2018-07-16T00:28:37.095Z,5.65
2018-07-16T00:29:10.227Z,5.58
2018-07-16T00:29:43.314Z,6.35
2018-07-16T00:30:16.629Z,5.83
2018-07-16T00:30:49.970Z,6.25
2018-07-16T00:31:23.169Z,6.00
2018-07-16T00:31:56.333Z,6.80
2018-07-16T00:32:29.431Z,5.72
2018-07-16T00:33:02.524Z,6.05
2018-07-16T00:33:35.700Z,5.78
2018-07-16T00:34:09.369Z,5.58
2018-07-16T00:34:42.558Z,5.85
2018-07-16T00:35:15.631Z,6.45
2018-07-16T00:35:48.926Z,5.85
2018-07-16T00:36:22.023Z,5.78
2018-07-16T00:36:55.260Z,6.20
2018-07-16T00:37:28.306Z,5.62
2018-07-16T00:38:01.614Z,6.22
2018-07-16T00:38:34.906Z,5.40
2018-07-16T00:39:07.975Z,5.78
2018-07-16T00:39:41.074Z,5.22
2018-07-16T00:40:14.171Z,6.40
2018-07-16T00:40:47.237Z,6.97
2018-07-16T00:41:20.338Z,5.40
2018-07-16T00:41:53.559Z,5.97
2018-07-16T00:42:26.634Z,5.72
2018-07-16T00:42:59.710Z,5.80
2018-07-16T00:43:32.924Z,5.47
2018-07-16T00:44:06.031Z,5.67
2018-07-16T00:44:39.139Z,5.45
2018-07-16T00:45:12.243Z,5.60
2018-07-16T00:45:45.328Z,6.42
2018-07-16T00:46:18.371Z,5.95
2018-07-16T00:46:51.458Z,5.97
2018-07-16T00:47:24.855Z,6.12
2018-07-16T00:47:57.916Z,5.55
2018-07-16T00:48:31.069Z,5.95
2018-07-16T00:49:04.354Z,5.50
2018-07-16T00:49:37.759Z,6.22
2018-07-16T00:50:10.912Z,5.25
2018-07-16T00:50:44.027Z,6.30
2018-07-16T00:51:17.138Z,5.65
2018-07-16T00:51:50.225Z,6.15
2018-07-16T00:52:23.461Z,6.22
2018-07-16T00:52:56.526Z,6.20
2018-07-16T00:53:29.691Z,5.45
2018-07-16T00:54:02.996Z,5.83
2018-07-16T00:54:36.089Z,5.90
2018-07-16T00:55:09.880Z,6.08
2018-07-16T00:55:43.000Z,5.45
2018-07-16T00:56:16.068Z,5.17
2018-07-16T00:56:49.530Z,6.00
2018-07-16T00:57:22.617Z,5.97
2018-07-16T00:57:55.706Z,5.12
2018-07-16T00:58:28.952Z,5.97
2018-07-16T00:59:02.088Z,5.95
2018-07-16T00:59:35.265Z,6.12
2018-07-16T01:00:08.347Z,6.35
2018-07-16T01:00:41.452Z,5.65
2018-07-16T01:01:14.799Z,5.03
2018-07-16T01:01:47.908Z,5.53
2018-07-16T01:02:21.023Z,5.92
2018-07-16T01:02:54.108Z,5.45
2018-07-16T01:03:27.190Z,5.40
2018-07-16T01:04:00.263Z,5.97
2018-07-16T01:04:33.346Z,5.67
2018-07-16T01:05:06.449Z,5.72
2018-07-16T01:05:39.644Z,5.95
2018-07-16T01:06:12.739Z,6.22
2018-07-16T01:06:45.983Z,5.42
2018-07-16T01:07:19.141Z,5.33
2018-07-16T01:07:52.340Z,6.03
2018-07-16T01:08:25.510Z,5.40
2018-07-16T01:08:58.619Z,5.67
2018-07-16T01:09:31.690Z,6.22
2018-07-16T01:10:04.762Z,5.42
2018-07-16T01:10:37.920Z,5.67
2018-07-16T01:11:11.092Z,6.00
2018-07-16T01:11:44.504Z,5.40
2018-07-16T01:12:17.754Z,5.20
2018-07-16T01:12:51.257Z,5.17
2018-07-16T01:13:24.324Z,5.75
2018-07-16T01:13:57.617Z,5.30
2018-07-16T01:14:30.718Z,5.92
2018-07-16T01:15:03.946Z,5.40
2018-07-16T01:15:37.263Z,4.33
2018-07-16T01:16:10.311Z,5.25
2018-07-16T01:16:43.395Z,5.72
2018-07-16T01:17:16.800Z,5.17
2018-07-16T01:17:50.175Z,5.17
2018-07-16T01:18:23.236Z,6.08
2018-07-16T01:18:56.512Z,5.58
2018-07-16T01:19:29.585Z,5.72
2018-07-16T01:20:02.887Z,6.03
2018-07-16T01:20:36.146Z,5.53
2018-07-16T01:21:09.234Z,5.55
2018-07-16T01:21:42.334Z,6.30
2018-07-16T01:22:15.591Z,5.75
2018-07-16T01:22:49.387Z,5.17
2018-07-16T01:23:22.535Z,5.65
2018-07-16T01:23:55.619Z,5.60
2018-07-16T01:24:28.699Z,5.42
2018-07-16T01:25:01.773Z,5.72
2018-07-16T01:25:34.960Z,4.55
2018-07-16T01:26:08.163Z,5.08
2018-07-16T01:26:41.312Z,5.72
2018-07-16T01:27:14.501Z,5.83
2018-07-16T01:27:47.592Z,6.15
2018-07-16T01:28:20.891Z,5.70
2018-07-16T01:28:54.032Z,5.60
2018-07-16T01:29:27.108Z,6.00
2018-07-16T01:30:00.392Z,5.72
2018-07-16T01:30:33.562Z,5.75
2018-07-16T01:31:06.652Z,6.37
2018-07-16T01:31:39.738Z,5.65
2018-07-16T01:32:12.813Z,5.10
2018-07-16T01:32:45.989Z,5.60
2018-07-16T01:33:19.068Z,5.60
2018-07-16T01:33:52.349Z,5.70
2018-07-16T01:34:25.518Z,5.08
2018-07-16T01:34:58.603Z,5.83
2018-07-16T01:35:31.692Z,5.20
2018-07-16T01:36:05.493Z,4.62
2018-07-16T01:36:38.568Z,5.10
2018-07-16T01:37:11.622Z,5.33
2018-07-16T01:37:44.901Z,5.72
2018-07-16T01:38:17.976Z,5.53
2018-07-16T01:38:51.281Z,5.22
2018-07-16T01:39:24.372Z,6.00
2018-07-16T01:39:57.632Z,5.65
2018-07-16T01:40:30.728Z,5.53
2018-07-16T01:41:04.190Z,6.03
2018-07-16T01:41:37.271Z,4.97
2018-07-16T01:42:10.366Z,5.33
2018-07-16T01:42:43.472Z,5.83
2018-07-16T01:43:16.706Z,4.92
2018-07-16T01:43:49.783Z,6.00
2018-07-16T01:44:23.031Z,5.30
2018-07-16T01:44:56.213Z,5.25
2018-07-16T01:45:29.395Z,5.83
2018-07-16T01:46:02.489Z,5.60
2018-07-16T01:46:35.577Z,6.55
2018-07-16T01:47:08.642Z,5.25
2018-07-16T01:47:41.763Z,5.28
2018-07-16T01:48:14.847Z,5.22
2018-07-16T01:48:48.150Z,6.30
2018-07-16T01:49:21.230Z,6.25
2018-07-16T01:49:54.550Z,5.87
2018-07-16T01:50:28.010Z,5.10
2018-07-16T01:51:01.088Z,6.17
2018-07-16T01:51:34.481Z,5.30
2018-07-16T01:52:07.548Z,5.47
2018-07-16T01:52:40.694Z,5.40
2018-07-16T01:53:13.759Z,5.80
2018-07-16T01:53:47.058Z,5.15
2018-07-16T01:54:20.237Z,5.20
2018-07-16T01:54:54.026Z,6.20
2018-07-16T01:55:27.231Z,5.53
2018-07-16T01:56:00.795Z,5.97
2018-07-16T01:56:33.892Z,6.33
2018-07-16T01:57:06.990Z,5.90
2018-07-16T01:57:40.093Z,6.10
2018-07-16T01:58:13.199Z,6.37
2018-07-16T01:58:46.273Z,5.95
2018-07-16T01:59:19.365Z,5.33
2018-07-16T01:59:52.442Z,5.40
2018-07-16T02:00:25.528Z,5.62
2018-07-16T02:00:59.932Z,5.58
2018-07-16T02:01:33.102Z,5.90
2018-07-16T02:02:06.406Z,5.17
2018-07-16T02:02:39.515Z,5.12
2018-07-16T02:03:12.639Z,5.45
2018-07-16T02:03:45.745Z,6.37
2018-07-16T02:04:18.855Z,5.42
2018-07-16T02:04:52.168Z,5.72
2018-07-16T02:05:25.481Z,5.85
2018-07-16T02:05:58.552Z,5.60
2018-07-16T02:06:31.621Z,6.10
2018-07-16T02:07:04.888Z,5.55
2018-07-16T02:07:38.162Z,5.25
2018-07-16T02:08:11.249Z,6.12
2018-07-16T02:08:44.547Z,5.50
2018-07-16T02:09:17.639Z,5.50
2018-07-16T02:09:50.780Z,5.67
2018-07-16T02:10:23.830Z,5.30
2018-07-16T02:10:57.127Z,5.58
2018-07-16T02:11:30.301Z,5.70
2018-07-16T02:12:03.503Z,5.45
2018-07-16T02:12:36.573Z,5.40
2018-07-16T02:13:09.630Z,5.60
2018-07-16T02:13:42.856Z,5.37
2018-07-16T02:14:15.971Z,5.95
2018-07-16T02:14:49.069Z,5.50
2018-07-16T02:15:22.160Z,5.55
2018-07-16T02:15:55.431Z,5.12
2018-07-16T02:16:28.606Z,5.15
2018-07-16T02:17:01.671Z,5.65
2018-07-16T02:17:34.830Z,5.80
2018-07-16T02:18:08.654Z,5.53
2018-07-16T02:18:41.760Z,5.75
2018-07-16T02:19:14.842Z,5.20
2018-07-16T02:19:47.979Z,5.10
2018-07-16T02:20:21.296Z,4.90
2018-07-16T02:20:54.399Z,5.25
2018-07-16T02:21:27.518Z,5.40
2018-07-16T02:22:00.837Z,5.40
2018-07-16T02:22:33.983Z,5.58
2018-07-16T02:23:07.100Z,5.50
2018-07-16T02:23:40.370Z,4.97
2018-07-16T02:24:13.450Z,5.97
2018-07-16T02:24:46.599Z,5.55
2018-07-16T02:25:19.695Z,6.03
2018-07-16T02:25:59.235Z,5.40
2018-07-16T02:26:32.432Z,4.80
2018-07-16T02:27:05.485Z,5.62
2018-07-16T02:27:38.764Z,5.78
2018-07-16T02:28:12.419Z,5.80
2018-07-16T02:28:45.636Z,5.70
2018-07-16T02:29:18.779Z,4.97
2018-07-16T02:29:51.956Z,5.75
2018-07-16T02:30:25.063Z,5.22
2018-07-16T02:30:58.131Z,5.78
2018-07-16T02:31:31.198Z,5.45
2018-07-16T02:32:04.419Z,5.05
2018-07-16T02:32:37.459Z,5.97
2018-07-16T02:33:11.431Z,5.58
2018-07-16T02:33:44.646Z,5.40
2018-07-16T02:34:17.738Z,5.60
2018-07-16T02:34:50.797Z,4.65
2018-07-16T02:35:24.176Z,5.97
2018-07-16T02:35:57.276Z,5.22
2018-07-16T02:36:30.434Z,5.40
2018-07-16T02:37:03.613Z,6.55
2018-07-16T02:37:36.826Z,5.20
2018-07-16T02:38:09.973Z,6.10
2018-07-16T02:38:43.245Z,7.08
2018-07-16T02:39:16.374Z,6.05
2018-07-16T02:39:49.600Z,5.85
2018-07-16T02:40:22.702Z,5.22
2018-07-16T02:40:55.940Z,5.78
2018-07-16T02:41:29.048Z,5.70
2018-07-16T02:42:02.121Z,6.42
2018-07-16T02:42:35.366Z,5.30
2018-07-16T02:43:08.546Z,6.10
2018-07-16T02:43:41.861Z,5.35
2018-07-16T02:44:14.986Z,6.55
2018-07-16T02:44:48.059Z,6.10
2018-07-16T02:45:21.176Z,6.20
2018-07-16T02:45:54.255Z,5.58
2018-07-16T02:46:27.330Z,5.10
2018-07-16T02:47:00.398Z,5.85
2018-07-16T02:47:33.503Z,5.80
2018-07-16T02:48:06.597Z,6.40
2018-07-16T02:48:39.787Z,5.75
2018-07-16T02:49:13.011Z,5.90
2018-07-16T02:49:46.105Z,6.05
2018-07-16T02:50:19.265Z,5.72
2018-07-16T02:50:52.456Z,5.62
2018-07-16T02:51:26.539Z,5.17
2018-07-16T02:51:59.614Z,5.80
2018-07-16T02:52:32.896Z,5.85
2018-07-16T02:53:06.200Z,5.30
2018-07-16T02:53:39.289Z,5.85
2018-07-16T02:54:12.428Z,6.75
2018-07-16T02:54:45.611Z,5.47
2018-07-16T02:55:18.833Z,5.40
2018-07-16T02:55:52.001Z,5.47
2018-07-16T02:56:25.229Z,5.70
2018-07-16T02:56:58.290Z,5.90
2018-07-16T02:57:31.448Z,5.70
2018-07-16T02:58:04.984Z,6.00
2018-07-16T02:58:38.196Z,5.90
2018-07-16T02:59:11.310Z,5.92
2018-07-16T02:59:44.654Z,5.90
2018-07-16T03:00:18.020Z,5.83
2018-07-16T03:00:51.215Z,5.50
2018-07-16T03:01:24.495Z,5.60
2018-07-16T03:01:57.588Z,6.10
2018-07-16T03:02:30.751Z,5.55
2018-07-16T03:03:04.035Z,5.75
2018-07-16T03:03:37.119Z,5.58
2018-07-16T03:04:10.282Z,5.95
2018-07-16T03:04:43.363Z,6.22
2018-07-16T03:05:17.540Z,5.62
2018-07-16T03:05:50.740Z,5.58
2018-07-16T03:06:23.899Z,6.00
2018-07-16T03:06:56.980Z,7.30
2018-07-16T03:07:30.351Z,7.15
2018-07-16T03:08:03.468Z,6.17
2018-07-16T03:08:36.538Z,6.78
2018-07-16T03:09:09.806Z,6.85
2018-07-16T03:09:42.903Z,6.40
2018-07-16T03:10:16.139Z,5.50
2018-07-16T03:10:49.462Z,5.47
2018-07-16T03:11:22.548Z,5.92
2018-07-16T03:11:55.666Z,6.10
2018-07-16T03:12:28.799Z,5.90
2018-07-16T03:13:01.920Z,5.72
2018-07-16T03:13:35.204Z,5.40
2018-07-16T03:14:08.368Z,6.55
2018-07-16T03:14:41.484Z,5.87
2018-07-16T03:15:14.965Z,7.17
2018-07-16T03:15:48.370Z,5.55
2018-07-16T03:16:21.449Z,5.40
2018-07-16T03:16:54.589Z,5.80
2018-07-16T03:17:27.783Z,5.50
2018-07-16T03:18:00.944Z,6.85
2018-07-16T03:18:34.122Z,4.80
2018-07-16T03:19:07.295Z,5.72
2018-07-16T03:19:40.840Z,6.47
2018-07-16T03:20:13.975Z,5.78
2018-07-16T03:20:47.035Z,5.78
2018-07-16T03:21:20.119Z,5.45
2018-07-16T03:21:53.228Z,5.22
2018-07-16T03:22:26.383Z,6.47
2018-07-16T03:22:59.538Z,5.80
2018-07-16T03:23:32.636Z,6.08
2018-07-16T03:24:05.913Z,5.28
2018-07-16T03:24:38.975Z,5.30
2018-07-16T03:25:12.078Z,5.00
2018-07-16T03:25:45.144Z,5.37
2018-07-16T03:26:18.221Z,5.95
2018-07-16T03:26:51.302Z,5.83
2018-07-16T03:27:24.482Z,5.22
2018-07-16T03:27:57.673Z,5.62
2018-07-16T03:28:30.788Z,5.62
2018-07-16T03:29:04.016Z,6.00
2018-07-16T03:29:37.127Z,5.70
2018-07-16T03:30:10.217Z,6.17
2018-07-16T03:30:43.319Z,6.25
2018-07-16T03:31:16.414Z,6.28
2018-07-16T03:31:49.615Z,6.47
2018-07-16T03:32:22.834Z,6.08
2018-07-16T03:32:56.193Z,5.28
2018-07-16T03:33:29.245Z,6.17
2018-07-16T03:34:02.512Z,5.17
2018-07-16T03:34:35.680Z,5.58
2018-07-16T03:35:08.787Z,6.00
2018-07-16T03:35:41.877Z,5.60
2018-07-16T03:36:14.971Z,6.47
2018-07-16T03:36:48.087Z,6.00
2018-07-16T03:37:21.320Z,6.00
2018-07-16T03:37:54.384Z,5.83
2018-07-16T03:38:27.759Z,5.92
2018-07-16T03:39:00.846Z,6.08
2018-07-16T03:39:33.940Z,6.72
2018-07-16T03:40:07.083Z,5.50
2018-07-16T03:40:40.472Z,6.12
2018-07-16T03:41:13.592Z,5.80
2018-07-16T03:41:46.656Z,7.00
2018-07-16T03:42:19.890Z,6.35
2018-07-16T03:42:52.995Z,5.90
2018-07-16T03:43:26.246Z,6.25
2018-07-16T03:43:59.517Z,6.65
2018-07-16T03:44:32.725Z,7.58
2018-07-16T03:45:06.083Z,7.80
2018-07-16T03:45:39.182Z,7.62
2018-07-16T03:46:12.279Z,6.70
2018-07-16T03:46:45.372Z,7.17
2018-07-16T03:47:18.509Z,7.58
2018-07-16T03:47:51.544Z,6.70
2018-07-16T03:48:24.615Z,7.42
2018-07-16T03:48:57.675Z,7.17
2018-07-16T03:49:30.744Z,7.05
2018-07-16T03:50:04.067Z,6.25
2018-07-16T03:50:37.251Z,6.10
2018-07-16T03:51:10.426Z,6.50
2018-07-16T03:51:43.528Z,6.20
2018-07-16T03:52:16.603Z,5.92
2018-07-16T03:52:49.711Z,6.75
2018-07-16T03:53:22.961Z,6.67
2018-07-16T03:53:56.063Z,6.58
2018-07-16T03:54:29.248Z,6.45
2018-07-16T03:55:02.281Z,6.28
2018-07-16T03:55:35.548Z,7.03
2018-07-16T03:56:08.697Z,5.95
2018-07-16T03:56:41.952Z,6.60
2018-07-16T03:57:15.032Z,6.12
2018-07-16T03:57:48.255Z,6.25
2018-07-16T03:58:21.568Z,6.53
2018-07-16T03:58:54.670Z,6.00
2018-07-16T03:59:27.809Z,6.40
2018-07-16T04:00:00.894Z,6.25
2018-07-16T04:00:34.282Z,6.50
2018-07-16T04:01:07.661Z,6.85
2018-07-16T04:01:40.855Z,6.30
2018-07-16T04:02:14.032Z,7.12
2018-07-16T04:02:47.195Z,6.30
2018-07-16T04:03:20.361Z,6.75
2018-07-16T04:03:53.452Z,5.78
2018-07-16T04:04:26.731Z,6.72
2018-07-16T04:04:59.829Z,6.55
2018-07-16T04:05:32.943Z,6.30
2018-07-16T04:06:06.089Z,6.83
2018-07-16T04:06:39.177Z,5.92
2018-07-16T04:07:12.368Z,6.45
2018-07-16T04:07:45.603Z,6.40
2018-07-16T04:08:18.690Z,5.75
2018-07-16T04:08:51.824Z,6.17
2018-07-16T04:09:25.137Z,6.42
2018-07-16T04:09:58.270Z,6.25
2018-07-16T04:10:31.362Z,6.17
2018-07-16T04:11:04.872Z,6.50
2018-07-16T04:11:38.062Z,6.70
2018-07-16T04:12:11.295Z,6.00
2018-07-16T04:12:44.399Z,6.20
2018-07-16T04:13:17.580Z,6.22
2018-07-16T04:13:50.666Z,6.25
2018-07-16T04:14:23.774Z,6.85
2018-07-16T04:14:57.111Z,8.13
2018-07-16T04:15:30.268Z,6.50
2018-07-16T04:16:03.311Z,6.85
2018-07-16T04:16:36.350Z,7.25
2018-07-16T04:17:09.509Z,6.92
2018-07-16T04:17:42.692Z,6.60
2018-07-16T04:18:20.297Z,6.67
2018-07-16T04:18:53.374Z,7.05
2018-07-16T04:19:26.547Z,7.47
2018-07-16T04:19:59.708Z,6.22
2018-07-16T04:20:32.878Z,6.08
2018-07-16T04:21:05.975Z,7.20
2018-07-16T04:21:39.238Z,6.40
2018-07-16T04:22:12.340Z,6.17
2018-07-16T04:22:45.434Z,6.30
2018-07-16T04:23:19.095Z,5.70
2018-07-16T04:23:52.282Z,6.08
2018-07-16T04:24:25.451Z,5.42
2018-07-16T04:24:58.616Z,6.90
2018-07-16T04:25:31.748Z,5.90
2018-07-16T04:26:04.851Z,6.70
2018-07-16T04:26:38.422Z,7.40
2018-07-16T04:27:11.591Z,6.75
2018-07-16T04:27:44.826Z,7.47
2018-07-16T04:28:18.058Z,6.28
2018-07-16T04:28:51.305Z,6.05
2018-07-16T04:29:24.666Z,6.70
2018-07-16T04:29:57.792Z,6.15
2018-07-16T04:30:30.910Z,6.65
2018-07-16T04:31:04.062Z,6.05
2018-07-16T04:31:37.412Z,7.62
2018-07-16T04:32:10.499Z,6.75
2018-07-16T04:32:43.719Z,6.55
2018-07-16T04:33:16.832Z,6.20
2018-07-16T04:33:50.219Z,7.35
2018-07-16T04:34:23.269Z,7.62
2018-07-16T04:34:56.394Z,7.53
2018-07-16T04:35:29.548Z,6.85
2018-07-16T04:36:02.687Z,7.60
2018-07-16T04:36:35.970Z,6.97
2018-07-16T04:37:09.398Z,6.25
2018-07-16T04:37:42.526Z,7.08
2018-07-16T04:38:15.810Z,7.33
2018-07-16T04:38:48.892Z,5.90
2018-07-16T04:39:21.998Z,7.05
2018-07-16T04:39:55.069Z,6.45
2018-07-16T04:40:28.244Z,6.50
2018-07-16T04:41:01.366Z,6.62
2018-07-16T04:41:35.567Z,6.75
2018-07-16T04:42:08.865Z,6.65
2018-07-16T04:42:42.055Z,7.37
2018-07-16T04:43:15.377Z,8.25
2018-07-16T04:43:48.575Z,11.43
2018-07-16T04:44:21.718Z,10.50
2018-07-16T04:44:54.819Z,8.98
2018-07-16T04:45:28.157Z,8.45
2018-07-16T04:46:01.391Z,7.60
2018-07-16T04:46:35.661Z,7.80
2018-07-16T04:47:08.872Z,8.25
2018-07-16T04:47:42.140Z,7.75
2018-07-16T04:48:15.416Z,7.20
2018-07-16T04:48:48.499Z,7.90
2018-07-16T04:49:21.669Z,7.25
2018-07-16T04:49:55.015Z,7.70
2018-07-16T04:50:28.239Z,8.35
2018-07-16T04:51:02.028Z,7.95
2018-07-16T04:51:36.425Z,8.38
2018-07-16T04:52:09.564Z,7.53
2018-07-16T04:52:43.200Z,7.60
2018-07-16T04:53:16.318Z,7.62
2018-07-16T04:53:49.426Z,8.18
2018-07-16T04:54:22.732Z,7.97
2018-07-16T04:54:55.809Z,8.03
2018-07-16T04:55:28.973Z,8.18
2018-07-16T04:56:02.214Z,8.53
2018-07-16T04:56:35.445Z,9.00
2018-07-16T04:57:09.318Z,7.20
2018-07-16T04:57:42.751Z,6.95
2018-07-16T04:58:16.214Z,7.65
2018-07-16T04:58:49.478Z,7.60
2018-07-16T04:59:22.876Z,7.72
2018-07-16T04:59:55.955Z,7.67
2018-07-16T05:00:29.145Z,8.15
2018-07-16T05:01:02.412Z,7.60
2018-07-16T05:01:35.567Z,7.35
2018-07-16T05:02:08.783Z,7.85
2018-07-16T05:02:41.933Z,8.25
2018-07-16T05:03:15.315Z,8.85
2018-07-16T05:03:48.506Z,8.18
2018-07-16T05:04:21.665Z,8.03
2018-07-16T05:04:54.984Z,7.87
2018-07-16T05:05:28.136Z,7.92
2018-07-16T05:06:01.343Z,7.95
2018-07-16T05:06:34.466Z,7.58
2018-07-16T05:07:07.588Z,8.13
2018-07-16T05:07:40.722Z,8.03
2018-07-16T05:08:14.041Z,7.55
2018-07-16T05:08:47.122Z,8.30
2018-07-16T05:09:20.295Z,8.60
2018-07-16T05:09:53.399Z,8.35
2018-07-16T05:10:26.634Z,8.88
2018-07-16T05:10:59.744Z,7.97
2018-07-16T05:11:33.001Z,8.23
2018-07-16T05:12:06.104Z,7.35
2018-07-16T05:12:39.991Z,7.83
2018-07-16T05:13:14.036Z,8.23
2018-07-16T05:13:47.261Z,7.55
2018-07-16T05:14:20.535Z,8.03
2018-07-16T05:14:53.673Z,7.97
2018-07-16T05:15:26.811Z,8.83
2018-07-16T05:16:00.008Z,7.60
2018-07-16T05:16:33.205Z,8.38
2018-07-16T05:17:06.313Z,7.90
2018-07-16T05:17:39.606Z,8.75
2018-07-16T05:18:13.424Z,7.97
2018-07-16T05:18:46.483Z,9.20
2018-07-16T05:19:19.587Z,8.83
2018-07-16T05:19:53.114Z,8.55
2018-07-16T05:20:26.423Z,9.88
2018-07-16T05:20:59.814Z,9.05
2018-07-16T05:21:33.038Z,8.93
2018-07-16T05:22:06.186Z,8.30
2018-07-16T05:22:39.362Z,8.40
2018-07-16T05:23:12.813Z,9.68
2018-07-16T05:23:45.903Z,8.83
2018-07-16T05:24:19.255Z,7.80
2018-07-16T05:24:52.346Z,7.70
2018-07-16T05:25:25.455Z,8.00
2018-07-16T05:25:58.731Z,8.28
2018-07-16T05:26:31.894Z,7.20
2018-07-16T05:27:05.489Z,7.58
2018-07-16T05:27:38.594Z,7.65
2018-07-16T05:28:12.064Z,6.90
2018-07-16T05:28:45.329Z,8.10
2018-07-16T05:29:18.806Z,7.80
2018-07-16T05:29:51.935Z,8.53
2018-07-16T05:30:26.435Z,7.70
2018-07-16T05:30:59.730Z,8.10
2018-07-16T05:31:32.847Z,8.13
2018-07-16T05:32:06.413Z,8.05
2018-07-16T05:32:39.980Z,7.50
2018-07-16T05:33:12.835Z,7.75
2018-07-16T05:33:45.970Z,7.40
2018-07-16T05:34:19.558Z,7.80
2018-07-16T05:34:52.748Z,8.13
2018-07-16T05:35:25.855Z,9.08
2018-07-16T05:35:58.989Z,8.58
2018-07-16T05:36:32.170Z,8.65
2018-07-16T05:37:05.462Z,8.93
2018-07-16T05:37:39.136Z,8.50
2018-07-16T05:38:13.259Z,9.90
2018-07-16T05:38:46.420Z,7.97
2018-07-16T05:39:20.199Z,8.60
2018-07-16T05:39:53.277Z,8.13
2018-07-16T05:40:26.487Z,8.25
2018-07-16T05:40:59.608Z,7.03
2018-07-16T05:41:32.916Z,7.70
2018-07-16T05:42:06.043Z,8.55
2018-07-16T05:42:39.220Z,8.88
2018-07-16T05:43:12.451Z,9.43
2018-07-16T05:43:45.932Z,9.10
2018-07-16T05:44:19.056Z,8.70
2018-07-16T05:44:52.306Z,7.47
2018-07-16T05:45:25.480Z,8.80
2018-07-16T05:45:58.607Z,8.60
2018-07-16T05:46:31.829Z,8.50
2018-07-16T05:47:05.711Z,8.60
2018-07-16T05:47:39.438Z,9.00
2018-07-16T05:48:13.247Z,9.18
2018-07-16T05:48:51.159Z,9.03
2018-07-16T05:49:24.614Z,8.38
2018-07-16T05:49:57.789Z,8.03
2018-07-16T05:50:30.947Z,9.10
2018-07-16T05:51:04.137Z,7.92
2018-07-16T05:51:37.631Z,8.38
2018-07-16T05:52:10.714Z,8.28
2018-07-16T05:52:43.901Z,8.50
2018-07-16T05:53:17.053Z,9.15
2018-07-16T05:53:50.233Z,9.68
2018-07-16T05:54:23.719Z,9.20
2018-07-16T05:54:57.548Z,8.03
2018-07-16T05:55:31.037Z,7.87
2018-07-16T05:56:04.142Z,9.13
2018-07-16T05:56:37.261Z,8.35
2018-07-16T05:57:10.544Z,7.85
2018-07-16T05:57:44.131Z,7.08
2018-07-16T05:58:17.247Z,7.20
2018-07-16T05:58:50.340Z,8.50
2018-07-16T05:59:24.192Z,8.10
2018-07-16T05:59:57.368Z,9.20
2018-07-16T06:00:30.899Z,10.40
2018-07-16T06:01:04.510Z,8.40
2018-07-16T06:01:37.737Z,8.35
2018-07-16T06:02:10.972Z,8.98
2018-07-16T06:02:44.186Z,8.45
2018-07-16T06:03:17.655Z,7.50
2018-07-16T06:03:50.826Z,7.97
2018-07-16T06:04:24.003Z,8.30
2018-07-16T06:04:57.117Z,7.47
2018-07-16T06:05:30.215Z,6.33
2018-07-16T06:06:03.308Z,6.33
2018-07-16T06:06:36.510Z,6.35
2018-07-16T06:07:09.613Z,7.10
2018-07-16T06:07:42.690Z,7.08
2018-07-16T06:08:16.072Z,7.37
2018-07-16T06:08:49.188Z,7.85
2018-07-16T06:09:22.269Z,8.20
2018-07-16T06:09:55.353Z,7.97
2018-07-16T06:10:28.635Z,7.12
2018-07-16T06:11:01.796Z,7.17
2018-07-16T06:11:34.958Z,7.67
2018-07-16T06:12:08.235Z,7.20
2018-07-16T06:12:41.366Z,7.70
2018-07-16T06:13:14.463Z,7.65
2018-07-16T06:13:47.959Z,6.90
2018-07-16T06:14:21.130Z,7.72
2018-07-16T06:14:54.327Z,7.70
2018-07-16T06:15:27.538Z,8.18
2018-07-16T06:16:00.823Z,7.80
2018-07-16T06:16:33.879Z,7.72
2018-07-16T06:17:06.974Z,7.53
2018-07-16T06:17:40.188Z,8.18
2018-07-16T06:18:13.911Z,7.97
2018-07-16T06:18:47.008Z,8.43
2018-07-16T06:19:20.552Z,9.90
2018-07-16T06:19:53.941Z,8.85
2018-07-16T06:20:27.081Z,7.53
2018-07-16T06:21:00.936Z,7.92
2018-07-16T06:21:34.188Z,7.08
2018-07-16T06:22:07.253Z,7.05
2018-07-16T06:22:41.152Z,6.22
2018-07-16T06:23:14.887Z,6.97
2018-07-16T06:23:47.999Z,6.00
2018-07-16T06:24:21.193Z,6.60
2018-07-16T06:24:54.291Z,7.00
2018-07-16T06:25:27.632Z,6.92
2018-07-16T06:26:01.148Z,6.42
2018-07-16T06:26:34.620Z,6.78
2018-07-16T06:27:08.120Z,6.67
2018-07-16T06:27:41.258Z,6.50
2018-07-16T06:28:14.351Z,6.83
2018-07-16T06:28:47.538Z,7.00
2018-07-16T06:29:20.730Z,7.62
2018-07-16T06:29:53.904Z,7.30
2018-07-16T06:30:27.104Z,6.35
2018-07-16T06:31:00.207Z,6.53
2018-07-16T06:31:33.484Z,6.90
2018-07-16T06:32:06.767Z,6.70
2018-07-16T06:32:40.067Z,7.12
2018-07-16T06:33:13.303Z,6.50
2018-07-16T06:33:46.533Z,6.70
2018-07-16T06:34:19.746Z,5.50
2018-07-16T06:34:53.090Z,5.90
2018-07-16T06:35:26.291Z,5.60
2018-07-16T06:35:59.789Z,6.47
2018-07-16T06:36:33.713Z,6.80
2018-07-16T06:37:07.479Z,6.67
2018-07-16T06:37:40.578Z,6.85
2018-07-16T06:38:13.655Z,6.90
2018-07-16T06:38:47.018Z,6.78
2018-07-16T06:39:20.145Z,7.03
2018-07-16T06:39:53.467Z,7.08
2018-07-16T06:40:27.885Z,6.30
2018-07-16T06:41:02.235Z,7.37
2018-07-16T06:41:35.489Z,7.70
2018-07-16T06:42:08.243Z,7.33
2018-07-16T06:42:42.086Z,7.65
2018-07-16T06:43:15.368Z,7.17
2018-07-16T06:43:48.459Z,7.12
2018-07-16T06:44:21.595Z,8.18
2018-07-16T06:44:54.937Z,6.90
2018-07-16T06:45:28.023Z,6.97
2018-07-16T06:46:01.263Z,6.97
2018-07-16T06:46:34.391Z,6.85
2018-07-16T06:47:07.571Z,7.05
2018-07-16T06:47:43.928Z,7.70
2018-07-16T06:48:17.100Z,7.50
2018-07-16T06:48:50.188Z,7.58
2018-07-16T06:49:23.385Z,8.13
2018-07-16T06:49:56.626Z,7.50
2018-07-16T06:50:30.095Z,7.28
2018-07-16T06:51:03.694Z,6.80
2018-07-16T06:51:37.132Z,7.47
2018-07-16T06:52:10.680Z,7.05
2018-07-16T06:52:44.418Z,7.42
2018-07-16T06:53:17.680Z,6.45
2018-07-16T06:53:51.137Z,6.65
2018-07-16T06:54:24.353Z,6.20
2018-07-16T06:54:57.498Z,6.58
2018-07-16T06:55:31.384Z,7.30
2018-07-16T06:56:04.656Z,7.10
2018-07-16T06:56:37.815Z,6.55
2018-07-16T06:57:14.032Z,7.62
2018-07-16T06:57:47.197Z,7.40
2018-07-16T06:58:20.534Z,6.22
2018-07-16T06:58:53.875Z,6.65
2018-07-16T06:59:27.305Z,6.70
2018-07-16T07:00:00.389Z,6.60
2018-07-16T07:00:33.605Z,8.18
2018-07-16T07:01:06.658Z,6.80
2018-07-16T07:01:40.175Z,6.78
2018-07-16T07:02:13.761Z,6.92
2018-07-16T07:02:47.129Z,7.00
2018-07-16T07:03:20.308Z,6.85
2018-07-16T07:03:53.435Z,6.80
2018-07-16T07:04:26.687Z,7.25
2018-07-16T07:04:59.843Z,7.87
2018-07-16T07:05:33.475Z,7.10
2018-07-16T07:06:06.758Z,6.47
2018-07-16T07:06:40.256Z,6.85
2018-07-16T07:07:13.475Z,7.05
2018-07-16T07:07:46.699Z,6.67
2018-07-16T07:08:19.735Z,6.95
2018-07-16T07:08:52.939Z,6.60
2018-07-16T07:09:26.510Z,6.40
2018-07-16T07:09:59.662Z,6.95
2018-07-16T07:10:32.809Z,6.10
2018-07-16T07:11:05.990Z,6.90
2018-07-16T07:11:39.097Z,6.78
2018-07-16T07:12:12.467Z,6.30
2018-07-16T07:12:45.823Z,7.90
2018-07-16T07:13:18.974Z,7.15
2018-07-16T07:13:52.116Z,9.40
2018-07-16T07:14:25.459Z,8.55
2018-07-16T07:14:58.555Z,7.67
2018-07-16T07:15:34.771Z,6.90
2018-07-16T07:16:09.326Z,6.85
2018-07-16T07:16:44.581Z,6.30
2018-07-16T07:17:20.611Z,5.70
2018-07-16T07:17:56.444Z,7.40
2018-07-16T07:18:31.489Z,6.22
2018-07-16T07:19:04.965Z,7.50
2018-07-16T07:19:38.063Z,7.17
2018-07-16T07:20:11.192Z,6.40
2018-07-16T07:20:44.448Z,6.30
2018-07-16T07:21:17.562Z,6.50
2018-07-16T07:21:50.745Z,6.05
2018-07-16T07:22:23.903Z,7.28
2018-07-16T07:22:57.099Z,6.87